Time;durP1;ratioP1;P1;durP2;ratioP2;P2;SDS_P1;SDS_P2;PMS_P1;PMS_P2;Temp;Humidity;BMP_temperature;BMP_pressure;BME280_temperature;BME280_humidity;BME280_pressure;Samples;Min_cycle;Max_cycle;Signal;HPM_P1;HPM_P2
2023/11/02 00:01:35;;;;;;;1.88;0.80;;;;;;;4.95;100.00;95662.31;5046192;28;20300;-60
2023/11/02 00:04:01;;;;;;;1.60;0.65;;;;;;;5.06;100.00;95657.81;5047988;28;20047;-59
2023/11/02 00:06:39;;;;;;;2.28;0.80;;;;;;;5.21;100.00;95647.16;5052978;28;20037;-60
2023/11/02 00:09:31;;;;;;;1.27;0.70;;;;;;;5.19;100.00;95627.03;5046116;28;20040;-60
2023/11/02 00:12:00;;;;;;;1.63;0.73;;;;;;;5.10;100.00;95624.03;5051335;28;20044;-59
2023/11/02 00:14:31;;;;;;;1.70;0.90;;;;;;;5.28;100.00;95627.34;5048056;28;20045;-60
2023/11/02 00:16:57;;;;;;;2.00;0.63;;;;;;;5.17;100.00;95613.09;5050886;28;20124;-60
2023/11/02 00:19:37;;;;;;;2.63;0.85;;;;;;;5.13;100.00;95611.97;5041869;28;20364;-61
2023/11/02 00:22:07;;;;;;;6.15;0.93;;;;;;;5.16;100.00;95614.16;5045553;28;20048;-60
2023/11/02 00:24:40;;;;;;;1.70;0.82;;;;;;;5.27;100.00;95598.91;5060117;28;20057;-60
2023/11/02 00:27:07;;;;;;;2.83;1.10;;;;;;;5.32;100.00;95583.63;5048948;28;20040;-60
2023/11/02 00:29:34;;;;;;;1.60;0.80;;;;;;;5.25;100.00;95585.75;5043903;28;20423;-60
2023/11/02 00:32:00;;;;;;;1.48;0.70;;;;;;;5.24;100.00;95586.00;5047229;28;20040;-60
2023/11/02 00:34:27;;;;;;;2.00;0.90;;;;;;;5.13;100.00;95563.69;5049138;28;20048;-61
2023/11/02 00:36:55;;;;;;;2.55;1.52;;;;;;;5.12;100.00;95556.72;5050491;28;20044;-61
2023/11/02 00:39:22;;;;;;;1.60;0.73;;;;;;;5.03;100.00;95546.50;5045177;28;20041;-61
2023/11/02 00:41:49;;;;;;;1.42;0.80;;;;;;;5.07;100.00;95544.91;5047079;28;20078;-60
2023/11/02 00:44:17;;;;;;;1.52;0.85;;;;;;;4.97;100.00;95552.88;5043634;28;20722;-60
2023/11/02 00:46:45;;;;;;;2.67;0.80;;;;;;;4.91;100.00;95543.22;5046075;28;20067;-60
2023/11/02 00:49:29;;;;;;;1.40;0.77;;;;;;;5.01;100.00;95543.25;5049844;28;20106;-59
2023/11/02 00:52:00;;;;;;;2.75;1.00;;;;;;;4.96;100.00;95545.91;5041593;28;20091;-59
2023/11/02 00:54:45;;;;;;;1.98;0.95;;;;;;;5.10;100.00;95545.44;5045431;28;20056;-60
2023/11/02 00:57:14;;;;;;;1.63;0.70;;;;;;;5.17;100.00;95543.31;5065618;28;20456;-60
2023/11/02 00:59:44;;;;;;;1.25;0.73;;;;;;;5.34;100.00;95543.91;5047691;28;20047;-60
2023/11/02 01:02:10;;;;;;;2.45;0.93;;;;;;;5.41;100.00;95548.22;5049051;28;20041;-60
2023/11/02 01:04:40;;;;;;;1.95;0.75;;;;;;;5.43;100.00;95529.97;5042768;28;20090;-59
2023/11/02 01:07:07;;;;;;;1.40;0.73;;;;;;;5.39;100.00;95521.66;5045525;28;20045;-59
2023/11/02 01:09:45;;;;;;;2.47;0.73;;;;;;;5.47;100.00;95512.28;5045824;28;20091;-60
2023/11/02 01:12:33;;;;;;;2.78;0.85;;;;;;;5.66;100.00;95507.22;5043064;28;20041;-59
2023/11/02 01:15:03;;;;;;;0.98;0.68;;;;;;;5.65;100.00;95494.88;5056261;28;20132;-60
2023/11/02 01:17:32;;;;;;;1.17;0.65;;;;;;;5.75;100.00;95479.84;5049410;28;20045;-61
2023/11/02 01:20:33;;;;;;;0.98;0.40;;;;;;;6.00;100.00;95479.03;5043789;28;20187;-61
2023/11/02 01:23:05;;;;;;;2.03;0.85;;;;;;;6.34;100.00;95475.00;5041902;28;20100;-61
2023/11/02 01:25:40;;;;;;;1.00;0.60;;;;;;;6.49;100.00;95469.56;5044562;28;20197;-61
2023/11/02 01:28:07;;;;;;;1.02;0.55;;;;;;;6.64;100.00;95454.50;5058514;28;20051;-59
2023/11/02 01:30:37;;;;;;;2.78;0.70;;;;;;;6.82;100.00;95439.63;5046664;28;20514;-60
2023/11/02 01:33:28;;;;;;;1.40;0.70;;;;;;;6.94;100.00;95431.25;5043849;28;20148;-59
2023/11/02 01:35:55;;;;;;;2.05;0.85;;;;;;;7.13;100.00;95420.66;5042359;28;20045;-60
2023/11/02 01:38:24;;;;;;;1.17;0.70;;;;;;;7.19;100.00;95415.22;5045777;28;20045;-60
2023/11/02 01:40:52;;;;;;;0.73;0.50;;;;;;;7.25;100.00;95406.03;5043813;28;20079;-60
2023/11/02 01:43:26;;;;;;;3.80;0.65;;;;;;;7.26;100.00;95410.34;5044380;28;20053;-60
2023/11/02 01:45:56;;;;;;;0.50;0.40;;;;;;;7.21;100.00;95402.28;5045531;28;20128;-59
2023/11/02 01:48:32;;;;;;;2.03;0.68;;;;;;;7.08;100.00;95395.66;5048349;28;20041;-60
2023/11/02 01:51:08;;;;;;;1.52;0.57;;;;;;;7.09;100.00;95405.31;5040892;28;20132;-59
2023/11/02 01:53:41;;;;;;;1.35;0.60;;;;;;;7.01;100.00;95399.44;5044791;28;20114;-60
2023/11/02 01:56:30;;;;;;;2.20;0.70;;;;;;;7.08;100.00;95399.13;5043174;28;20065;-59
2023/11/02 01:59:28;;;;;;;1.83;0.65;;;;;;;7.13;100.00;95385.66;5047119;28;20178;-60
2023/11/02 02:02:08;;;;;;;1.77;0.75;;;;;;;6.81;100.00;95383.44;5038950;28;20132;-60
2023/11/02 02:04:49;;;;;;;1.25;0.70;;;;;;;6.74;100.00;95383.69;5042638;28;20120;-59
2023/11/02 02:07:24;;;;;;;2.10;0.70;;;;;;;6.73;100.00;95372.16;5043801;28;20048;-59
2023/11/02 02:10:19;;;;;;;1.52;0.68;;;;;;;6.63;100.00;95372.19;5042236;28;20037;-59
2023/11/02 02:12:59;;;;;;;1.75;0.68;;;;;;;6.52;100.00;95362.56;5040888;28;20033;-60
2023/11/02 02:15:55;;;;;;;1.92;0.80;;;;;;;6.30;100.00;95363.72;5040720;28;20132;-60
2023/11/02 02:18:36;;;;;;;1.00;0.70;;;;;;;6.31;100.00;95360.78;5046013;28;20447;-60
2023/11/02 02:21:09;;;;;;;2.08;0.73;;;;;;;6.33;100.00;95355.09;5042845;28;20052;-60
2023/11/02 02:23:53;;;;;;;1.42;0.70;;;;;;;6.38;100.00;95347.81;5043850;28;20052;-59
2023/11/02 02:26:48;;;;;;;2.25;0.60;;;;;;;6.46;100.00;95334.91;5041450;28;20041;-59
2023/11/02 02:29:30;;;;;;;3.33;0.90;;;;;;;6.61;100.00;95312.50;5038097;28;20064;-59
2023/11/02 02:32:15;;;;;;;1.85;0.77;;;;;;;6.78;100.00;95304.06;5042136;28;20044;-60
2023/11/02 02:34:54;;;;;;;3.95;0.80;;;;;;;6.81;100.00;95286.59;5042854;28;20033;-59
2023/11/02 02:37:32;;;;;;;1.40;0.50;;;;;;;6.90;100.00;95296.44;5038922;28;20044;-60
2023/11/02 02:40:07;;;;;;;2.28;0.70;;;;;;;7.08;100.00;95277.25;5042673;28;20523;-60
2023/11/02 02:42:36;;;;;;;4.28;0.68;;;;;;;7.16;100.00;95274.72;5045223;28;20048;-59
2023/11/02 02:45:10;;;;;;;4.18;0.80;;;;;;;7.30;100.00;95279.50;5039768;28;20057;-60
2023/11/02 02:47:39;;;;;;;1.10;0.50;;;;;;;7.43;100.00;95269.94;5043948;28;20071;-60
2023/11/02 02:50:09;;;;;;;1.40;0.57;;;;;;;7.44;100.00;95259.97;5043644;28;20393;-60
2023/11/02 02:52:38;;;;;;;1.70;0.85;;;;;;;7.48;100.00;95261.03;5035158;28;20044;-60
2023/11/02 02:55:07;;;;;;;1.38;0.70;;;;;;;7.54;100.00;95266.06;5041923;28;20120;-60
2023/11/02 02:57:37;;;;;;;1.63;0.50;;;;;;;7.62;100.00;95266.50;5057941;28;20045;-60
2023/11/02 03:00:08;;;;;;;1.70;1.00;;;;;;;7.61;100.00;95260.34;5046246;28;20674;-60
2023/11/02 03:02:34;;;;;;;1.45;0.70;;;;;;;7.61;100.00;95257.66;5058502;28;20037;-59
2023/11/02 03:05:06;;;;;;;1.45;0.80;;;;;;;7.64;100.00;95267.06;5045950;28;20630;-59
2023/11/02 03:07:35;;;;;;;2.67;0.60;;;;;;;7.64;100.00;95269.75;5043507;28;20091;-59
2023/11/02 03:10:05;;;;;;;2.22;0.60;;;;;;;7.69;100.00;95280.47;5048876;28;20730;-61
2023/11/02 03:12:34;;;;;;;2.17;0.90;;;;;;;7.62;100.00;95263.81;5045924;28;20094;-61
2023/11/02 03:15:06;;;;;;;1.50;0.80;;;;;;;7.59;100.00;95273.28;5045951;28;20045;-60
2023/11/02 03:18:07;;;;;;;2.50;1.10;;;;;;;7.63;100.00;95263.53;5049002;28;20048;-60
2023/11/02 03:20:34;;;;;;;1.98;1.00;;;;;;;7.60;100.00;95266.00;5045452;28;20033;-61
2023/11/02 03:23:27;;;;;;;3.42;0.93;;;;;;;7.54;100.00;95238.31;5047937;28;20066;-60
2023/11/02 03:26:06;;;;;;;3.75;1.42;;;;;;;7.43;100.00;95237.63;5038266;28;20039;-60
2023/11/02 03:28:51;;;;;;;2.05;1.02;;;;;;;7.44;100.00;95238.44;5046010;28;20043;-59
2023/11/02 03:31:20;;;;;;;2.08;1.25;;;;;;;7.38;100.00;95225.00;5049340;28;20040;-60
2023/11/02 03:34:05;;;;;;;3.00;1.10;;;;;;;7.39;100.00;95225.81;5043875;28;20043;-60
2023/11/02 03:36:43;;;;;;;4.32;1.02;;;;;;;7.35;100.00;95217.53;5047185;28;20043;-59
2023/11/02 03:39:35;;;;;;;2.63;1.00;;;;;;;7.25;100.00;95213.03;5055728;28;20040;-59
2023/11/02 03:42:22;;;;;;;;;;;;;;;7.31;100.00;95194.94;5051646;28;20063;-60
2023/11/02 03:45:10;;;;;;;2.08;1.42;;;;;;;7.23;100.00;95196.34;5052139;28;20477;-59
2023/11/02 03:48:00;;;;;;;3.08;1.08;;;;;;;7.18;100.00;95190.25;5049806;28;20044;-59
2023/11/02 03:50:26;;;;;;;2.17;1.10;;;;;;;7.16;100.00;95168.97;5034263;28;20061;-60
2023/11/02 03:53:14;;;;;;;2.65;1.08;;;;;;;7.15;100.00;95146.63;5048669;28;20127;-59
2023/11/02 03:55:57;;;;;;;1.95;0.98;;;;;;;7.22;100.00;95130.16;5043673;28;20593;-59
2023/11/02 03:58:45;;;;;;;1.98;1.00;;;;;;;7.35;100.00;95117.91;5046881;28;20108;-60
2023/11/02 04:01:20;;;;;;;1.85;0.88;;;;;;;7.37;100.00;95102.25;5048556;28;20710;-60
2023/11/02 04:03:50;;;;;;;1.52;0.90;;;;;;;7.43;100.00;95081.47;5047435;28;20499;-60
2023/11/02 04:06:20;;;;;;;3.40;0.98;;;;;;;7.48;100.00;95062.53;5047142;28;20057;-61
2023/11/02 04:08:49;;;;;;;2.13;0.90;;;;;;;7.55;100.00;95041.47;5046981;28;20040;-60
2023/11/02 04:11:26;;;;;;;1.45;0.80;;;;;;;7.62;100.00;95018.72;5052096;28;20606;-59
2023/11/02 04:13:56;;;;;;;2.15;1.10;;;;;;;7.66;100.00;95011.69;5042762;28;20496;-60
2023/11/02 04:16:25;;;;;;;1.15;0.52;;;;;;;7.73;100.00;95003.22;5055499;28;20048;-60
2023/11/02 04:18:52;;;;;;;2.53;0.75;;;;;;;7.80;100.00;94998.28;5044667;28;20037;-60
2023/11/02 04:21:18;;;;;;;2.15;0.90;;;;;;;7.80;100.00;95009.06;5044643;28;20041;-59
2023/11/02 04:23:45;;;;;;;3.42;0.70;;;;;;;7.87;100.00;95001.41;5049915;28;20060;-60
2023/11/02 04:26:12;;;;;;;2.72;0.75;;;;;;;7.86;100.00;95005.22;5046608;28;20124;-59
2023/11/02 04:28:38;;;;;;;1.52;0.75;;;;;;;7.77;100.00;95005.06;5050088;28;20036;-59
2023/11/02 04:31:05;;;;;;;1.45;0.73;;;;;;;7.79;100.00;94996.69;5036871;28;20045;-60
2023/11/02 04:33:31;;;;;;;2.47;0.60;;;;;;;7.87;100.00;95003.28;5055602;28;20040;-66
2023/11/02 04:35:58;;;;;;;1.35;0.65;;;;;;;7.95;100.00;94991.84;5055752;28;20049;-60
2023/11/02 04:38:25;;;;;;;1.70;0.65;;;;;;;7.98;100.00;94993.97;5049321;28;20518;-60
2023/11/02 04:40:55;;;;;;;2.10;0.65;;;;;;;8.03;100.00;94983.09;5046586;28;20037;-60
2023/11/02 04:43:22;;;;;;;1.88;0.63;;;;;;;8.05;100.00;94972.84;5047471;28;20191;-60
2023/11/02 04:45:48;;;;;;;0.98;0.65;;;;;;;8.06;100.00;94968.22;5053406;28;20083;-60
2023/11/02 04:48:15;;;;;;;2.15;0.80;;;;;;;8.07;100.00;94942.88;5027170;28;20412;-61
2023/11/02 04:50:43;;;;;;;2.25;0.73;;;;;;;8.09;100.00;94939.88;5048308;28;20040;-60
2023/11/02 04:53:09;;;;;;;2.38;0.63;;;;;;;8.13;100.00;94925.53;5046951;28;20565;-60
2023/11/02 04:55:37;;;;;;;1.70;0.63;;;;;;;8.12;100.00;94931.22;5044782;28;20115;-60
2023/11/02 04:58:04;;;;;;;1.48;0.68;;;;;;;8.18;100.00;94927.31;5046456;28;20049;-60
2023/11/02 05:00:30;;;;;;;2.67;0.98;;;;;;;8.20;100.00;94939.44;5041332;28;20053;-60
2023/11/02 05:02:57;;;;;;;2.40;0.80;;;;;;;8.25;100.00;94943.13;5047838;28;20638;-60
2023/11/02 05:05:23;;;;;;;1.75;0.82;;;;;;;8.17;100.00;94913.06;5046687;28;20136;-61
2023/11/02 05:07:50;;;;;;;2.95;1.02;;;;;;;8.10;100.00;94895.69;5043563;28;20052;-61
2023/11/02 05:10:17;;;;;;;2.90;1.23;;;;;;;8.04;100.00;94886.91;5044253;28;20041;-60
2023/11/02 05:12:45;;;;;;;2.08;1.05;;;;;;;8.01;100.00;94884.78;5043701;28;20033;-60
2023/11/02 05:15:12;;;;;;;3.08;1.23;;;;;;;8.01;100.00;94882.91;5044255;28;20043;-61
2023/11/02 05:17:38;;;;;;;2.35;1.35;;;;;;;8.03;100.00;94878.00;5045396;28;20037;-61
2023/11/02 05:20:06;;;;;;;1.38;0.82;;;;;;;8.02;100.00;94864.81;5044823;28;20041;-60
2023/11/02 05:22:33;;;;;;;2.40;1.08;;;;;;;8.04;100.00;94859.94;5045132;28;20041;-61
2023/11/02 05:24:59;;;;;;;1.52;0.88;;;;;;;8.05;100.00;94837.28;5047259;28;20049;-61
2023/11/02 05:27:26;;;;;;;1.45;0.90;;;;;;;8.01;100.00;94834.41;5049738;28;20044;-60
2023/11/02 05:29:52;;;;;;;2.40;1.10;;;;;;;8.02;100.00;94811.72;5047134;28;20041;-60
2023/11/02 05:32:19;;;;;;;2.75;1.10;;;;;;;7.96;100.00;94802.13;5047821;28;20037;-60
2023/11/02 05:34:45;;;;;;;3.80;1.13;;;;;;;7.94;100.00;94790.88;5046992;28;20029;-60
2023/11/02 05:37:12;;;;;;;2.85;1.33;;;;;;;7.96;100.00;94804.03;5050015;28;20045;-60
2023/11/02 05:39:39;;;;;;;1.83;1.00;;;;;;;8.03;100.00;94818.72;5049181;28;20044;-60
2023/11/02 05:42:06;;;;;;;1.60;0.90;;;;;;;8.12;100.00;94837.69;5053081;28;20127;-60
2023/11/02 05:44:33;;;;;;;2.20;1.00;;;;;;;8.18;100.00;94849.97;5051315;28;20554;-60
2023/11/02 05:46:59;;;;;;;3.03;0.70;;;;;;;8.22;100.00;94857.47;5049100;28;20041;-60
2023/11/02 05:49:26;;;;;;;5.38;1.30;;;;;;;8.23;100.00;94873.34;5045450;28;20573;-60
2023/11/02 05:51:52;;;;;;;6.10;1.17;;;;;;;8.30;100.00;94899.91;5051986;28;20077;-60
2023/11/02 05:54:19;;;;;;;3.63;1.40;;;;;;;8.47;100.00;94923.56;5048106;28;20040;-60
2023/11/02 05:56:45;;;;;;;1.73;1.00;;;;;;;8.73;100.00;94939.28;5045473;28;20052;-60
2023/11/02 05:59:12;;;;;;;4.22;1.20;;;;;;;8.80;100.00;94960.47;5046022;28;20471;-59
2023/11/02 06:01:40;;;;;;;2.08;0.90;;;;;;;8.67;100.00;94984.44;5046879;28;20045;-60
2023/11/02 06:04:07;;;;;;;1.95;0.88;;;;;;;8.65;100.00;94994.75;5043708;28;20040;-61
2023/11/02 06:06:33;;;;;;;4.28;1.00;;;;;;;8.50;100.00;94997.69;5044568;28;20041;-61
2023/11/02 06:09:00;;;;;;;3.63;1.00;;;;;;;8.48;100.00;94994.50;5048630;28;20507;-60
2023/11/02 06:11:27;;;;;;;2.22;1.17;;;;;;;8.19;100.00;94991.72;5053729;28;20087;-61
2023/11/02 06:13:53;;;;;;;3.78;0.93;;;;;;;8.02;100.00;94992.28;5046266;28;20083;-61
2023/11/02 06:16:21;;;;;;;3.45;1.13;;;;;;;8.07;100.00;94980.59;5050170;28;20041;-61
2023/11/02 06:18:49;;;;;;;3.47;1.10;;;;;;;8.03;100.00;94983.09;5047917;28;20334;-61
2023/11/02 06:21:15;;;;;;;5.57;1.42;;;;;;;7.98;100.00;94977.00;5040174;28;20155;-60
2023/11/02 06:23:42;;;;;;;2.83;1.08;;;;;;;7.85;100.00;94955.09;5044881;28;20065;-60
2023/11/02 06:26:09;;;;;;;3.45;1.20;;;;;;;7.79;100.00;94950.88;5041447;28;20052;-61
2023/11/02 06:28:35;;;;;;;2.22;0.93;;;;;;;7.66;100.00;94950.53;5048452;28;20389;-61
2023/11/02 06:31:02;;;;;;;3.20;1.15;;;;;;;7.62;100.00;94940.63;5043074;28;20102;-60
2023/11/02 06:33:30;;;;;;;4.18;1.10;;;;;;;7.59;100.00;94946.63;5043055;28;20037;-60
2023/11/02 06:35:57;;;;;;;3.83;0.98;;;;;;;7.60;100.00;94942.84;5048437;28;20115;-60
2023/11/02 06:38:24;;;;;;;2.60;0.65;;;;;;;7.60;100.00;94948.22;5043507;28;20048;-61
2023/11/02 06:40:51;;;;;;;3.10;0.90;;;;;;;7.60;100.00;94934.75;5044147;28;20719;-60
2023/11/02 06:43:17;;;;;;;2.60;0.70;;;;;;;7.59;100.00;94950.09;5036842;28;20083;-61
2023/11/02 06:45:44;;;;;;;1.95;0.82;;;;;;;7.59;100.00;94950.09;5045239;28;20043;-61
2023/11/02 06:48:11;;;;;;;3.38;1.00;;;;;;;7.55;100.00;94930.22;5048560;28;20138;-61
2023/11/02 06:50:37;;;;;;;3.28;1.38;;;;;;;7.57;100.00;94928.06;5048087;28;20419;-61
2023/11/02 06:53:04;;;;;;;1.80;0.90;;;;;;;7.60;100.00;94921.28;5048473;28;20052;-61
2023/11/02 06:55:32;;;;;;;2.38;1.10;;;;;;;7.55;100.00;94914.88;5045264;28;20098;-63
2023/11/02 06:57:58;;;;;;;2.75;1.35;;;;;;;7.63;100.00;94916.09;5050209;28;20049;-61
2023/11/02 07:00:25;;;;;;;3.17;1.20;;;;;;;7.61;100.00;94912.91;5048797;28;20091;-63
2023/11/02 07:02:52;;;;;;;3.47;1.30;;;;;;;7.64;100.00;94912.34;5054520;28;20526;-63
2023/11/02 07:05:19;;;;;;;3.33;1.20;;;;;;;7.64;100.00;94906.97;5046375;28;20103;-61
2023/11/02 07:07:49;;;;;;;2.22;1.00;;;;;;;7.62;100.00;94908.31;5052272;28;20507;-63
2023/11/02 07:10:16;;;;;;;1.50;0.90;;;;;;;7.64;100.00;94909.66;5046396;28;20124;-63
2023/11/02 07:12:43;;;;;;;1.58;0.90;;;;;;;7.78;100.00;94906.19;5051379;28;20393;-63
2023/11/02 07:15:11;;;;;;;3.40;1.40;;;;;;;7.80;100.00;94912.88;5048571;28;20047;-64
2023/11/02 07:17:38;;;;;;;2.45;1.15;;;;;;;7.63;100.00;94909.94;5050974;28;20048;-63
2023/11/02 07:20:05;;;;;;;4.65;1.40;;;;;;;7.53;100.00;94908.97;5043850;28;20053;-62
2023/11/02 07:22:32;;;;;;;2.90;1.20;;;;;;;7.62;100.00;94911.81;5045386;28;20111;-62
2023/11/02 07:25:00;;;;;;;2.60;1.25;;;;;;;7.71;100.00;94903.88;5051610;28;20740;-64
2023/11/02 07:27:30;;;;;;;2.78;1.27;;;;;;;7.64;100.00;94895.38;5046150;28;20048;-63
2023/11/02 07:29:59;;;;;;;3.15;1.00;;;;;;;7.58;100.00;94886.56;5042534;28;20044;-62
2023/11/02 07:32:26;;;;;;;5.40;1.30;;;;;;;7.71;100.00;94874.25;5060473;28;20124;-63
2023/11/02 07:34:53;;;;;;;3.17;1.35;;;;;;;7.67;100.00;94874.03;5053082;28;20052;-63
2023/11/02 07:37:19;;;;;;;3.17;1.23;;;;;;;7.65;100.00;94865.47;5048156;28;20045;-62
2023/11/02 07:39:46;;;;;;;2.22;0.90;;;;;;;7.58;100.00;94862.34;5049741;28;20076;-63
2023/11/02 07:42:13;;;;;;;1.45;0.80;;;;;;;7.61;100.00;94861.75;5046670;28;20075;-64
2023/11/02 07:44:42;;;;;;;3.42;1.20;;;;;;;7.71;100.00;94860.78;5047230;28;20047;-63
2023/11/02 07:47:09;;;;;;;2.35;1.13;;;;;;;7.82;100.00;94853.31;5054027;28;20043;-63
2023/11/02 07:49:37;;;;;;;3.25;1.40;;;;;;;7.72;100.00;94840.03;5042594;28;20094;-62
2023/11/02 07:52:05;;;;;;;3.80;1.85;;;;;;;7.76;100.00;94841.84;5046733;28;20045;-63
2023/11/02 07:54:38;;;;;;;2.17;0.90;;;;;;;7.65;100.00;94843.09;5053140;28;20120;-62
2023/11/02 07:57:07;;;;;;;1.92;1.02;;;;;;;7.71;100.00;94833.03;5050228;28;20048;-64
2023/11/02 07:59:38;;;;;;;2.05;1.08;;;;;;;7.76;100.00;94835.63;5045976;28;20381;-63
2023/11/02 08:02:05;;;;;;;3.47;1.10;;;;;;;7.85;100.00;94828.47;5045710;28;20083;-64
2023/11/02 08:04:32;;;;;;;3.35;1.60;;;;;;;7.77;100.00;94834.53;5044216;28;20061;-63
2023/11/02 08:06:58;;;;;;;6.63;1.20;;;;;;;7.83;100.00;94832.56;5054754;28;20048;-63
2023/11/02 08:09:25;;;;;;;3.50;1.40;;;;;;;7.80;100.00;94826.69;5042815;28;20051;-64
2023/11/02 08:11:52;;;;;;;3.15;1.40;;;;;;;7.81;100.00;94816.69;5048348;28;20045;-64
2023/11/02 08:14:19;;;;;;;2.80;1.05;;;;;;;7.76;100.00;94814.91;5048399;28;20045;-62
2023/11/02 08:16:47;;;;;;;2.88;1.27;;;;;;;7.79;100.00;94826.97;5047370;28;20052;-63
2023/11/02 08:19:14;;;;;;;3.40;1.48;;;;;;;7.85;100.00;94822.28;5047772;28;20684;-64
2023/11/02 08:21:42;;;;;;;3.22;1.42;;;;;;;7.86;100.00;94821.19;5048809;28;20071;-63
2023/11/02 08:24:09;;;;;;;3.50;1.48;;;;;;;8.00;100.00;94810.44;5051714;28;20151;-62
2023/11/02 08:26:36;;;;;;;3.33;1.35;;;;;;;7.96;100.00;94804.03;5050354;28;20119;-63
2023/11/02 08:29:04;;;;;;;2.42;1.23;;;;;;;7.77;100.00;94807.59;5047854;28;20128;-62
2023/11/02 08:31:32;;;;;;;2.67;1.15;;;;;;;7.87;100.00;94803.94;5043989;28;20578;-63
2023/11/02 08:34:02;;;;;;;4.18;1.23;;;;;;;7.78;100.00;94801.91;5055995;28;20056;-63
2023/11/02 08:36:34;;;;;;;3.83;1.00;;;;;;;7.81;100.00;94803.22;5051819;28;20049;-62
2023/11/02 08:39:02;;;;;;;4.03;1.67;;;;;;;7.80;100.00;94799.75;5044192;28;20041;-62
2023/11/02 08:41:32;;;;;;;3.30;1.20;;;;;;;7.86;100.00;94792.38;5046902;28;20037;-63
2023/11/02 08:43:59;;;;;;;1.58;0.95;;;;;;;7.84;100.00;94774.88;5048588;28;20041;-62
2023/11/02 08:46:27;;;;;;;3.10;1.20;;;;;;;7.77;100.00;94783.34;5045144;28;20124;-63
2023/11/02 08:48:54;;;;;;;2.80;0.98;;;;;;;7.77;100.00;94780.66;5046673;28;20566;-64
2023/11/02 08:51:22;;;;;;;4.60;1.08;;;;;;;7.76;100.00;94769.09;5045643;28;20168;-63
2023/11/02 08:53:49;;;;;;;2.92;1.13;;;;;;;7.76;100.00;94761.03;5049556;28;20106;-63
2023/11/02 08:56:16;;;;;;;2.88;1.10;;;;;;;7.76;100.00;94766.41;5049216;28;20045;-66
2023/11/02 08:58:44;;;;;;;3.33;1.20;;;;;;;7.83;100.00;94768.72;5055240;28;20041;-64
2023/11/02 09:01:11;;;;;;;3.08;1.10;;;;;;;7.82;100.00;94767.13;5047951;28;20159;-65
2023/11/02 09:03:39;;;;;;;4.80;1.25;;;;;;;7.85;100.00;94771.13;5060454;28;20131;-65
2023/11/02 09:06:06;;;;;;;5.47;1.58;;;;;;;7.84;100.00;94773.00;5050892;28;20072;-65
2023/11/02 09:08:35;;;;;;;3.03;1.30;;;;;;;7.81;100.00;94776.28;5050749;28;20041;-65
2023/11/02 09:11:03;;;;;;;1.38;0.90;;;;;;;7.83;100.00;94779.50;5044248;28;20357;-65
2023/11/02 09:13:32;;;;;;;4.28;1.13;;;;;;;7.93;100.00;94784.66;5046874;28;20060;-65
2023/11/02 09:15:59;;;;;;;4.07;1.02;;;;;;;7.96;100.00;94782.50;5055552;28;20106;-65
2023/11/02 09:18:26;;;;;;;5.22;1.17;;;;;;;8.01;100.00;94787.78;5048167;28;20043;-65
2023/11/02 09:20:52;;;;;;;3.60;1.10;;;;;;;8.02;100.00;94797.44;5043778;28;20052;-65
2023/11/02 09:23:19;;;;;;;3.85;0.90;;;;;;;8.06;100.00;94807.34;5045344;28;20049;-65
2023/11/02 09:25:46;;;;;;;2.00;0.93;;;;;;;8.13;100.00;94806.94;5045036;28;20045;-65
2023/11/02 09:28:14;;;;;;;2.90;1.10;;;;;;;8.26;100.00;94816.09;5046573;28;20528;-65
2023/11/02 09:30:45;;;;;;;3.15;1.10;;;;;;;8.32;100.00;94806.84;5052170;28;20041;-65
2023/11/02 09:33:12;;;;;;;3.08;1.33;;;;;;;8.15;100.00;94820.91;5048540;28;20040;-65
2023/11/02 09:35:39;;;;;;;2.20;0.90;;;;;;;8.29;100.00;94820.13;5043185;28;20068;-65
2023/11/02 09:38:06;;;;;;;2.75;1.20;;;;;;;8.26;100.00;94840.38;5044111;28;20044;-65
2023/11/02 09:40:33;;;;;;;3.45;1.45;;;;;;;8.26;100.00;94831.50;5043388;28;20041;-65
2023/11/02 09:43:02;;;;;;;1.77;0.98;;;;;;;8.30;100.00;94837.91;5044897;28;20645;-63
2023/11/02 09:45:30;;;;;;;4.22;1.40;;;;;;;8.17;100.00;94834.09;5048828;28;20045;-63
2023/11/02 09:47:58;;;;;;;2.03;0.98;;;;;;;8.13;100.00;94836.59;5048589;28;21255;-63
2023/11/02 09:50:26;;;;;;;1.50;0.85;;;;;;;8.07;100.00;94827.00;5040168;28;20037;-63
2023/11/02 09:52:56;;;;;;;2.13;1.17;;;;;;;8.05;100.00;94818.41;5040992;28;20037;-64
2023/11/02 09:55:24;;;;;;;2.72;1.00;;;;;;;8.18;100.00;94806.03;5048767;28;20041;-63
2023/11/02 09:57:51;;;;;;;3.00;1.08;;;;;;;8.22;100.00;94798.16;5040588;28;20330;-62
2023/11/02 10:00:19;;;;;;;2.40;1.00;;;;;;;8.23;100.00;94800.56;5043540;28;20116;-63
2023/11/02 10:02:50;;;;;;;2.45;1.20;;;;;;;8.36;100.00;94811.63;5043025;28;20045;-63
2023/11/02 10:05:17;;;;;;;2.97;0.90;;;;;;;8.31;100.00;94809.84;5044246;28;20039;-62
2023/11/02 10:07:49;;;;;;;2.58;1.13;;;;;;;8.36;100.00;94801.63;5044832;28;20072;-63
2023/11/02 10:10:16;;;;;;;1.58;1.00;;;;;;;8.35;100.00;94805.44;5046757;28;20055;-63
2023/11/02 10:12:42;;;;;;;2.70;0.90;;;;;;;8.40;100.00;94791.06;5043609;28;20044;-63
2023/11/02 10:15:11;;;;;;;3.78;1.17;;;;;;;8.49;100.00;94781.16;5045046;28;20060;-63
2023/11/02 10:17:38;;;;;;;3.33;1.13;;;;;;;8.57;100.00;94782.34;5046883;28;20041;-64
2023/11/02 10:20:17;;;;;;;1.80;0.90;;;;;;;8.63;100.00;94774.97;5052555;28;20753;-64
2023/11/02 10:22:56;;;;;;;2.72;1.00;;;;;;;8.73;100.00;94769.31;5046519;28;20156;-64
2023/11/02 10:25:23;;;;;;;3.00;1.23;;;;;;;8.84;100.00;94761.78;5044369;28;20041;-62
2023/11/02 10:27:50;;;;;;;3.75;1.20;;;;;;;8.80;100.00;94755.41;5044121;28;20041;-65
2023/11/02 10:30:17;;;;;;;3.58;1.10;;;;;;;8.79;100.00;94756.53;5044002;28;20044;-61
2023/11/02 10:32:43;;;;;;;1.50;0.90;;;;;;;8.85;100.00;94752.63;5050765;28;20037;-65
2023/11/02 10:35:10;;;;;;;1.73;1.00;;;;;;;8.89;100.00;94750.09;5046336;28;20109;-65
2023/11/02 10:37:37;;;;;;;2.63;0.98;;;;;;;9.01;100.00;94746.84;5046957;28;20128;-61
2023/11/02 10:40:05;;;;;;;1.73;1.00;;;;;;;9.07;100.00;94727.50;5045415;28;20504;-63
2023/11/02 10:42:31;;;;;;;2.35;0.93;;;;;;;9.09;100.00;94701.03;5042106;28;20599;-63
2023/11/02 10:44:59;;;;;;;4.32;1.20;;;;;;;9.08;100.00;94702.13;5039349;28;20073;-64
2023/11/02 10:47:29;;;;;;;3.15;1.00;;;;;;;9.19;100.00;94697.28;5048328;28;20524;-63
2023/11/02 10:49:58;;;;;;;2.25;1.05;;;;;;;9.18;100.00;94702.97;5049106;28;20090;-64
2023/11/02 10:52:42;;;;;;;3.25;1.00;;;;;;;9.18;100.00;94706.47;5046320;28;20061;-64
2023/11/02 10:55:19;;;;;;;6.97;1.15;;;;;;;9.16;100.00;94687.09;5039083;28;20029;-62
2023/11/02 10:57:48;;;;;;;3.08;1.00;;;;;;;9.13;100.00;94695.03;5040190;28;20053;-63
2023/11/02 11:00:22;;;;;;;2.40;0.70;;;;;;;9.17;100.00;94682.47;5043271;28;20041;-63
2023/11/02 11:02:50;;;;;;;1.98;0.73;;;;;;;9.11;100.00;94682.59;5048211;28;20041;-63
2023/11/02 11:05:18;;;;;;;1.85;0.80;;;;;;;9.19;100.00;94689.19;5045600;28;20067;-63
2023/11/02 11:07:45;;;;;;;5.10;0.93;;;;;;;9.29;100.00;94688.09;5050039;28;20062;-62
2023/11/02 11:10:13;;;;;;;1.33;0.68;;;;;;;9.28;100.00;94685.72;5052566;28;20048;-62
2023/11/02 11:12:41;;;;;;;4.28;0.70;;;;;;;9.32;100.00;94689.41;5040560;28;20041;-62
2023/11/02 11:15:10;;;;;;;1.88;0.80;;;;;;;9.41;100.00;94692.13;5046036;28;20040;-62
2023/11/02 11:17:44;;;;;;;1.42;0.55;;;;;;;9.45;100.00;94704.72;5051657;28;20116;-63
2023/11/02 11:20:11;;;;;;;1.60;0.50;;;;;;;9.43;100.00;94695.34;5044639;28;20039;-64
2023/11/02 11:22:40;;;;;;;1.48;0.55;;;;;;;9.45;100.00;94703.91;5041118;28;20497;-62
2023/11/02 11:25:06;;;;;;;1.13;0.43;;;;;;;9.50;100.00;94712.69;5045110;28;20059;-62
2023/11/02 11:27:35;;;;;;;1.45;0.70;;;;;;;9.51;100.00;94705.34;5031023;28;20153;-64
2023/11/02 11:30:22;;;;;;;1.15;0.45;;;;;;;9.59;100.00;94703.81;5039729;28;20045;-65
2023/11/02 11:32:49;;;;;;;1.77;0.65;;;;;;;9.62;100.00;94698.59;5046044;28;20037;-63
2023/11/02 11:35:19;;;;;;;3.28;1.10;;;;;;;9.61;100.00;94688.09;5050037;28;20622;-64
2023/11/02 11:37:57;;;;;;;1.33;0.50;;;;;;;9.56;100.00;94696.34;5051828;28;20733;-63
2023/11/02 11:40:26;;;;;;;1.45;0.50;;;;;;;9.54;100.00;94693.16;5053468;28;20047;-64
2023/11/02 11:43:06;;;;;;;0.93;0.40;;;;;;;9.66;100.00;94696.03;5046978;28;20037;-64
2023/11/02 11:46:04;;;;;;;1.17;0.40;;;;;;;9.66;100.00;94673.66;5052077;28;20049;-64
2023/11/02 11:48:31;;;;;;;0.82;0.40;;;;;;;9.64;100.00;94671.25;5043955;28;20053;-65
2023/11/02 12:03:36;;;;;;;1.55;0.40;;;;;;;9.60;100.00;94606.25;5022505;28;20171;-63